Terminal Aerodrome Forecast
Issued by NWS

Home | Current Version | Previous Version | Text Only | Print | Product List | Glossary On
Versions: 1 2 3 4 5 6 7 8 9 10 11 12 13
000
FTUS46 KPDT 201700
TAFALW
TAF
KALW 201731Z 2018/2118 22012G20KT P6SM FEW050 OVC200
     FM202100 23014G22KT P6SM FEW070 SCT200
     FM210400 18008KT P6SM SKC
     FM211000 19009KT P6SM FEW040=

USA.gov is the U.S. government's official web portal to all federal, state and local government web resources and services.